createdAt,value
2018-06-25T00:01:21.684Z,62.05
2018-06-25T00:03:50.321Z,61.53
2018-06-25T00:06:19.099Z,62.34
2018-06-25T00:08:47.655Z,62.51
2018-06-25T00:11:16.199Z,62.85
2018-06-25T00:13:45.374Z,62.23
2018-06-25T00:16:14.352Z,62.12
2018-06-25T00:18:43.002Z,62.23
2018-06-25T00:21:11.621Z,61.77
2018-06-25T00:23:40.202Z,61.66
2018-06-25T00:26:08.797Z,61.84
2018-06-25T00:28:37.625Z,62.05
2018-06-25T00:31:06.571Z,61.72
2018-06-25T00:33:35.839Z,62.18
2018-06-25T00:36:04.375Z,61.77
2018-06-25T00:38:32.939Z,61.56
2018-06-25T00:41:01.500Z,61.77
2018-06-25T00:43:30.031Z,61.64
2018-06-25T00:45:58.624Z,61.55
2018-06-25T00:48:27.248Z,62.12
2018-06-25T00:50:55.852Z,62.69
2018-06-25T00:53:24.584Z,63.53
2018-06-25T00:55:53.282Z,63.63
2018-06-25T00:58:22.445Z,62.68
2018-06-25T01:00:51.750Z,62.39
2018-06-25T01:03:20.955Z,62.97
2018-06-25T01:05:49.665Z,62.74
2018-06-25T01:08:18.451Z,62.31
2018-06-25T01:10:47.720Z,62.40
2018-06-25T01:13:16.266Z,62.50
2018-06-25T01:15:45.094Z,62.71
2018-06-25T01:18:13.669Z,62.46
2018-06-25T01:20:42.540Z,62.19
2018-06-25T01:23:11.166Z,62.68
2018-06-25T01:25:39.700Z,63.76
2018-06-25T01:28:08.292Z,64.05
2018-06-25T01:30:37.160Z,64.20
2018-06-25T01:33:06.026Z,63.71
2018-06-25T01:35:34.670Z,63.35
2018-06-25T01:38:03.382Z,63.48
2018-06-25T01:40:32.690Z,63.59
2018-06-25T01:43:01.251Z,63.58
2018-06-25T01:45:29.927Z,63.84
2018-06-25T01:47:58.536Z,63.69
2018-06-25T01:50:27.569Z,63.53
2018-06-25T01:52:56.351Z,62.93
2018-06-25T01:55:25.038Z,62.75
2018-06-25T01:57:53.731Z,63.22
2018-06-25T02:00:22.351Z,63.21
2018-06-25T02:02:51.657Z,63.52
2018-06-25T02:05:20.704Z,63.69
2018-06-25T02:07:49.387Z,64.05
2018-06-25T02:10:18.772Z,64.11
2018-06-25T02:12:47.495Z,64.76
2018-06-25T02:15:16.416Z,64.70
2018-06-25T02:17:45.838Z,65.06
2018-06-25T02:20:14.547Z,65.21
2018-06-25T02:22:43.387Z,65.36
2018-06-25T02:25:13.077Z,65.55
2018-06-25T02:27:41.727Z,65.22
2018-06-25T02:30:11.092Z,65.30
2018-06-25T02:32:41.369Z,65.21
2018-06-25T02:35:09.983Z,65.31
2018-06-25T02:37:38.696Z,65.01
2018-06-25T02:40:07.916Z,65.03
2018-06-25T02:42:36.828Z,64.73
2018-06-25T02:45:06.513Z,64.76
2018-06-25T02:47:35.162Z,64.97
2018-06-25T02:50:03.968Z,65.18
2018-06-25T02:52:33.109Z,64.95
2018-06-25T02:55:02.206Z,64.74
2018-06-25T02:57:30.850Z,65.62
2018-06-25T03:00:00.369Z,66.10
2018-06-25T03:02:29.050Z,65.95
2018-06-25T03:04:58.168Z,67.42
2018-06-25T03:07:26.981Z,67.94
2018-06-25T03:09:55.592Z,66.90
2018-06-25T03:12:24.307Z,66.52
2018-06-25T03:14:53.061Z,66.61
2018-06-25T03:17:22.422Z,67.20
2018-06-25T03:19:51.735Z,66.87
2018-06-25T03:22:20.671Z,66.82
2018-06-25T03:24:49.320Z,66.77
2018-06-25T03:27:18.337Z,66.94
2018-06-25T03:29:47.051Z,67.26
2018-06-25T03:32:15.561Z,67.37
2018-06-25T03:34:44.536Z,67.15
2018-06-25T03:37:13.781Z,67.97
2018-06-25T03:39:42.273Z,67.80
2018-06-25T03:42:11.036Z,68.00
2018-06-25T03:44:39.577Z,67.54
2018-06-25T03:47:08.358Z,68.88
2018-06-25T03:49:37.063Z,69.37
2018-06-25T03:52:05.718Z,70.06
2018-06-25T03:54:34.391Z,70.73
2018-06-25T03:57:03.062Z,71.88
2018-06-25T03:59:31.671Z,72.61
2018-06-25T04:02:00.574Z,72.62
2018-06-25T04:04:29.688Z,73.15
2018-06-25T04:06:58.299Z,73.07
2018-06-25T04:09:27.167Z,73.25
2018-06-25T04:11:55.712Z,73.77
2018-06-25T04:14:25.348Z,74.43
2018-06-25T04:16:53.988Z,74.39
2018-06-25T04:19:23.362Z,75.19
2018-06-25T04:21:52.011Z,74.90
2018-06-25T04:24:21.474Z,74.22
2018-06-25T04:26:50.111Z,74.08
2018-06-25T04:29:18.953Z,73.89
2018-06-25T04:31:47.672Z,73.86
2018-06-25T04:34:16.411Z,73.71
2018-06-25T04:36:45.789Z,74.00
2018-06-25T04:39:14.512Z,74.31
2018-06-25T04:41:43.207Z,73.64
2018-06-25T04:44:11.871Z,72.70
2018-06-25T04:46:40.759Z,71.73
2018-06-25T04:49:10.021Z,71.02
2018-06-25T04:51:38.952Z,69.59
2018-06-25T04:54:07.592Z,69.61
2018-06-25T04:56:36.256Z,69.04
2018-06-25T04:59:05.763Z,69.38
2018-06-25T05:01:34.462Z,69.33
2018-06-25T05:04:03.270Z,70.48
2018-06-25T05:06:31.957Z,70.11
2018-06-25T05:09:00.767Z,70.28
2018-06-25T05:11:29.556Z,69.73
2018-06-25T05:13:58.227Z,69.13
2018-06-25T05:16:27.162Z,68.24
2018-06-25T05:18:55.945Z,67.13
2018-06-25T05:21:25.127Z,67.22
2018-06-25T05:23:53.848Z,65.91
2018-06-25T05:26:22.642Z,65.68
2018-06-25T05:28:51.814Z,65.85
2018-06-25T05:31:20.782Z,64.50
2018-06-25T05:33:49.436Z,64.73
2018-06-25T05:36:18.352Z,65.50
2018-06-25T05:38:47.207Z,66.16
2018-06-25T05:41:16.007Z,66.34
2018-06-25T05:43:44.643Z,67.49
2018-06-25T05:46:13.328Z,66.90
2018-06-25T05:48:42.080Z,67.46
2018-06-25T05:51:10.991Z,66.51
2018-06-25T05:53:40.112Z,66.22
2018-06-25T05:56:08.841Z,66.05
2018-06-25T05:58:38.238Z,65.79
2018-06-25T06:01:07.819Z,64.31
2018-06-25T06:03:36.821Z,65.21
2018-06-25T06:06:06.021Z,65.03
2018-06-25T06:08:35.521Z,65.62
2018-06-25T06:11:04.437Z,65.15
2018-06-25T06:13:33.272Z,65.24
2018-06-25T06:16:01.944Z,64.83
2018-06-25T06:18:31.217Z,65.20
2018-06-25T06:21:00.262Z,64.94
2018-06-25T06:23:29.224Z,64.24
2018-06-25T06:25:57.825Z,62.55
2018-06-25T06:28:27.059Z,62.16
2018-06-25T06:30:56.344Z,62.18
2018-06-25T06:33:25.374Z,61.36
2018-06-25T06:35:54.220Z,59.93
2018-06-25T06:38:22.922Z,58.99
2018-06-25T06:40:52.297Z,58.17
2018-06-25T06:43:21.196Z,57.49
2018-06-25T06:45:49.968Z,57.06
2018-06-25T06:48:18.839Z,55.74
2018-06-25T06:50:47.519Z,56.12
2018-06-25T06:53:16.289Z,55.59
2018-06-25T06:55:45.533Z,54.76
2018-06-25T06:58:14.143Z,53.08
2018-06-25T07:00:43.436Z,50.51
2018-06-25T07:03:12.334Z,48.45
2018-06-25T07:05:40.917Z,48.22
2018-06-25T07:08:09.757Z,47.30
2018-06-25T07:10:39.107Z,47.81
2018-06-25T07:13:08.748Z,47.84
2018-06-25T07:15:37.399Z,48.23
2018-06-25T07:18:07.190Z,49.30
2018-06-25T07:20:35.833Z,49.22
2018-06-25T07:23:05.002Z,49.22
2018-06-25T07:25:34.363Z,49.59
2018-06-25T07:28:04.320Z,49.95
2018-06-25T07:30:32.999Z,49.08
2018-06-25T07:33:01.928Z,50.01
2018-06-25T07:35:30.615Z,50.37
2018-06-25T07:37:59.439Z,49.90
2018-06-25T07:40:28.067Z,50.35
2018-06-25T07:42:56.903Z,49.89
2018-06-25T07:45:25.705Z,50.48
2018-06-25T07:47:54.364Z,49.95
2018-06-25T07:50:23.854Z,49.34
2018-06-25T07:52:52.711Z,48.88
2018-06-25T07:55:21.557Z,48.79
2018-06-25T07:57:50.220Z,49.37
2018-06-25T08:00:19.825Z,49.83
2018-06-25T08:02:48.358Z,48.72
2018-06-25T08:05:17.214Z,48.97
2018-06-25T08:07:45.930Z,48.92
2018-06-25T08:10:14.737Z,49.10
2018-06-25T08:12:43.742Z,48.25
2018-06-25T08:15:12.528Z,48.30
2018-06-25T08:17:42.165Z,49.23
2018-06-25T08:20:10.885Z,49.29
2018-06-25T08:22:39.657Z,51.05
2018-06-25T08:25:08.519Z,51.61
2018-06-25T08:27:38.079Z,51.94
2018-06-25T08:30:06.931Z,52.40
2018-06-25T08:32:35.708Z,51.85
2018-06-25T08:35:05.733Z,52.27
2018-06-25T08:37:34.992Z,53.46
2018-06-25T08:40:03.744Z,54.09
2018-06-25T08:42:32.469Z,53.02
2018-06-25T08:45:01.076Z,52.12
2018-06-25T08:47:29.814Z,51.00
2018-06-25T08:49:59.570Z,50.40
2018-06-25T08:52:28.943Z,50.96
2018-06-25T08:54:57.604Z,52.23
2018-06-25T08:57:26.703Z,52.44
2018-06-25T08:59:55.399Z,53.20
2018-06-25T09:02:24.119Z,53.16
2018-06-25T09:04:52.989Z,52.54
2018-06-25T09:07:21.680Z,52.12
2018-06-25T09:09:50.946Z,51.14
2018-06-25T09:12:19.844Z,49.92
2018-06-25T09:14:48.454Z,47.52
2018-06-25T09:17:17.144Z,46.41
2018-06-25T09:19:45.807Z,44.58
2018-06-25T09:22:14.702Z,41.31
2018-06-25T09:24:43.461Z,40.76
2018-06-25T09:27:12.095Z,40.99
2018-06-25T09:29:40.704Z,41.17
2018-06-25T09:32:10.360Z,40.72
2018-06-25T09:34:44.218Z,40.02
2018-06-25T09:37:12.964Z,38.75
2018-06-25T09:39:41.795Z,40.59
2018-06-25T09:42:10.549Z,42.35
2018-06-25T09:44:39.182Z,43.69
2018-06-25T09:47:07.889Z,45.12
2018-06-25T09:49:36.589Z,43.61
2018-06-25T09:52:06.372Z,39.79
2018-06-25T09:54:35.020Z,39.83
2018-06-25T09:57:04.241Z,38.94
2018-06-25T09:59:33.653Z,38.81
2018-06-25T10:02:02.538Z,35.56
2018-06-25T10:04:32.039Z,32.62
2018-06-25T10:07:01.587Z,31.33
2018-06-25T10:09:30.311Z,31.75
2018-06-25T10:11:59.249Z,33.12
2018-06-25T10:14:27.821Z,34.44
2018-06-25T10:16:56.638Z,34.96
2018-06-25T10:19:25.227Z,35.14
2018-06-25T10:21:54.401Z,34.08
2018-06-25T10:24:23.151Z,30.75
2018-06-25T10:26:51.857Z,30.47
2018-06-25T10:29:21.080Z,28.11
2018-06-25T10:31:49.746Z,28.97
2018-06-25T10:34:18.516Z,28.16
2018-06-25T10:36:47.133Z,29.34
2018-06-25T10:39:16.049Z,27.08
2018-06-25T10:41:45.315Z,24.66
2018-06-25T10:44:14.337Z,24.21
2018-06-25T10:46:43.719Z,23.74
2018-06-25T10:49:12.534Z,23.26
2018-06-25T10:51:41.404Z,23.82
2018-06-25T10:54:10.784Z,24.76
2018-06-25T10:56:39.394Z,27.34
2018-06-25T10:59:08.179Z,27.03
2018-06-25T11:01:37.054Z,26.31
2018-06-25T11:04:06.155Z,24.71
2018-06-25T11:06:35.544Z,23.40
2018-06-25T11:09:06.655Z,25.90
2018-06-25T11:11:35.564Z,28.01
2018-06-25T11:14:05.078Z,29.90
2018-06-25T11:16:33.776Z,30.51
2018-06-25T11:19:02.554Z,28.84
2018-06-25T11:21:31.964Z,24.65
2018-06-25T11:24:00.766Z,22.62
2018-06-25T11:26:29.355Z,21.00
2018-06-25T11:28:58.271Z,19.78
2018-06-25T11:31:26.925Z,20.65
2018-06-25T11:33:56.056Z,18.48
2018-06-25T11:36:25.835Z,17.82
2018-06-25T11:38:54.466Z,18.20
2018-06-25T11:41:23.185Z,20.48
2018-06-25T11:43:51.970Z,21.94
2018-06-25T11:46:20.741Z,21.35
2018-06-25T11:48:49.495Z,18.96
2018-06-25T11:51:18.051Z,18.04
2018-06-25T11:53:46.854Z,17.35
2018-06-25T11:56:16.416Z,17.12
2018-06-25T11:58:45.256Z,19.32
2018-06-25T12:01:14.221Z,21.94
2018-06-25T12:03:43.010Z,22.93
2018-06-25T12:06:12.541Z,23.30
2018-06-25T12:08:41.279Z,21.97
2018-06-25T12:11:09.980Z,22.63
2018-06-25T12:13:38.836Z,24.37
2018-06-25T12:16:07.684Z,24.83
2018-06-25T12:18:37.336Z,25.14
2018-06-25T12:21:05.986Z,25.14
2018-06-25T12:23:34.776Z,26.21
2018-06-25T12:26:03.785Z,24.81
2018-06-25T12:28:33.550Z,23.94
2018-06-25T12:31:02.312Z,22.83
2018-06-25T12:33:31.058Z,21.78
2018-06-25T12:35:59.751Z,20.52
2018-06-25T12:38:29.214Z,20.98
2018-06-25T12:40:58.194Z,20.85
2018-06-25T12:43:27.526Z,20.53
2018-06-25T12:45:56.876Z,22.11
2018-06-25T12:48:25.789Z,23.12
2018-06-25T12:50:55.016Z,23.68
2018-06-25T12:53:24.703Z,24.40
2018-06-25T12:55:53.477Z,25.70
2018-06-25T12:58:22.310Z,26.31
2018-06-25T13:00:51.080Z,26.63
2018-06-25T13:03:19.772Z,27.02
2018-06-25T13:05:48.377Z,27.58
2018-06-25T13:08:17.290Z,28.33
2018-06-25T13:10:46.767Z,28.02
2018-06-25T13:13:16.266Z,28.31
2018-06-25T13:15:45.284Z,26.77
2018-06-25T13:18:14.132Z,26.45
2018-06-25T13:20:42.800Z,27.19
2018-06-25T13:23:11.961Z,28.27
2018-06-25T13:25:40.804Z,29.75
2018-06-25T13:28:09.505Z,30.18
2018-06-25T13:30:38.324Z,30.03
2018-06-25T13:33:07.831Z,29.76
2018-06-25T13:35:36.934Z,30.42
2018-06-25T13:38:06.401Z,29.55
2018-06-25T13:40:35.215Z,30.46
2018-06-25T13:43:03.920Z,29.61
2018-06-25T13:45:32.814Z,29.81
2018-06-25T13:48:01.383Z,30.93
2018-06-25T13:50:30.125Z,30.91
2018-06-25T13:52:58.984Z,31.16
2018-06-25T13:55:28.544Z,30.57
2018-06-25T13:57:57.816Z,30.79
2018-06-25T14:00:26.986Z,31.33
2018-06-25T14:02:55.820Z,32.85
2018-06-25T14:05:24.810Z,31.80
2018-06-25T14:07:54.163Z,30.61
2018-06-25T14:10:22.896Z,31.09
2018-06-25T14:12:51.493Z,31.36
2018-06-25T14:15:20.992Z,31.52
2018-06-25T14:17:50.404Z,32.37
2018-06-25T14:20:19.353Z,31.69
2018-06-25T14:22:48.789Z,30.89
2018-06-25T14:25:17.450Z,31.25
2018-06-25T14:27:51.420Z,31.50
2018-06-25T14:30:25.561Z,31.58
2018-06-25T14:33:09.752Z,29.84
2018-06-25T14:35:38.767Z,29.78
2018-06-25T14:38:08.099Z,29.94
2018-06-25T14:40:37.726Z,31.82
2018-06-25T14:43:06.443Z,32.38
2018-06-25T14:45:35.692Z,33.75
2018-06-25T14:48:06.154Z,34.34
2018-06-25T14:50:35.217Z,33.93
2018-06-25T14:53:04.285Z,34.90
2018-06-25T14:55:32.991Z,35.68
2018-06-25T14:58:01.641Z,35.90
2018-06-25T15:00:30.303Z,35.89
2018-06-25T15:02:59.036Z,34.86
2018-06-25T15:05:28.648Z,34.55
2018-06-25T15:07:57.475Z,35.11
2018-06-25T15:10:26.181Z,34.94
2018-06-25T15:12:54.967Z,34.43
2018-06-25T15:15:24.728Z,34.32
2018-06-25T15:17:53.477Z,33.32
2018-06-25T15:20:22.201Z,33.44
2018-06-25T15:22:51.786Z,34.01
2018-06-25T15:25:20.461Z,34.89
2018-06-25T15:27:49.397Z,34.53
2018-06-25T15:30:27.811Z,35.24
2018-06-25T15:32:56.588Z,35.04
2018-06-25T15:35:25.390Z,33.93
2018-06-25T15:37:54.510Z,33.79
2018-06-25T15:40:23.543Z,35.70
2018-06-25T15:42:52.212Z,36.43
2018-06-25T15:45:21.036Z,37.06
2018-06-25T15:47:49.790Z,36.30
2018-06-25T15:50:18.449Z,36.52
2018-06-25T15:52:47.074Z,35.86
2018-06-25T15:55:15.822Z,36.14
2018-06-25T15:57:44.605Z,35.61
2018-06-25T16:00:13.716Z,34.39
2018-06-25T16:02:43.222Z,34.39
2018-06-25T16:05:12.434Z,35.21
2018-06-25T16:07:41.221Z,34.93
2018-06-25T16:10:10.015Z,35.05
2018-06-25T16:12:38.640Z,34.45
2018-06-25T16:15:07.537Z,34.66
2018-06-25T16:17:36.907Z,35.83
2018-06-25T16:20:05.729Z,36.52
2018-06-25T16:22:34.360Z,36.21
2018-06-25T16:25:03.580Z,37.07
2018-06-25T16:27:32.297Z,37.22
2018-06-25T16:30:01.036Z,37.41
2018-06-25T16:32:30.471Z,37.45
2018-06-25T16:34:59.532Z,39.10
2018-06-25T16:37:29.148Z,40.11
2018-06-25T16:39:58.113Z,40.09
2018-06-25T16:42:26.848Z,41.11
2018-06-25T16:44:55.688Z,41.37
2018-06-25T16:47:24.709Z,41.56
2018-06-25T16:49:53.421Z,41.81
2018-06-25T16:52:22.353Z,41.78
2018-06-25T16:54:51.138Z,40.22
2018-06-25T16:57:19.807Z,41.10
2018-06-25T16:59:48.631Z,40.57
2018-06-25T17:02:17.423Z,40.91
2018-06-25T17:04:45.957Z,40.74
2018-06-25T17:07:14.746Z,40.81
2018-06-25T17:09:43.446Z,40.70
2018-06-25T17:12:12.506Z,40.15
2018-06-25T17:14:41.218Z,40.20
2018-06-25T17:17:09.915Z,39.20
2018-06-25T17:19:38.660Z,39.87
2018-06-25T17:22:07.630Z,39.91
2018-06-25T17:24:36.361Z,39.57
2018-06-25T17:27:05.401Z,39.93
2018-06-25T17:29:34.311Z,39.63
2018-06-25T17:32:04.058Z,39.86
2018-06-25T17:34:32.688Z,39.22
2018-06-25T17:37:01.607Z,39.00
2018-06-25T17:39:30.361Z,39.23
2018-06-25T17:41:59.892Z,40.06
2018-06-25T17:44:28.652Z,39.91
2018-06-25T17:46:57.553Z,40.02
2018-06-25T17:49:26.311Z,40.37
2018-06-25T17:51:55.168Z,40.72
2018-06-25T17:54:24.581Z,41.47
2018-06-25T17:56:53.213Z,41.71
2018-06-25T17:59:22.028Z,41.90
2018-06-25T18:01:50.662Z,41.97
2018-06-25T18:04:19.244Z,42.01
2018-06-25T18:06:48.298Z,42.33
2018-06-25T18:09:17.054Z,42.44
2018-06-25T18:11:45.898Z,42.11
2018-06-25T18:14:14.740Z,42.08
2018-06-25T18:16:43.394Z,42.09
2018-06-25T18:19:12.142Z,41.72
2018-06-25T18:21:40.848Z,41.24
2018-06-25T18:24:09.668Z,42.26
2018-06-25T18:26:38.548Z,41.98
2018-06-25T18:29:07.435Z,42.24
2018-06-25T18:31:36.482Z,42.69
2018-06-25T18:34:05.091Z,43.40
2018-06-25T18:36:33.872Z,44.29
2018-06-25T18:39:03.407Z,44.34
2018-06-25T18:41:32.208Z,45.38
2018-06-25T18:44:01.529Z,45.18
2018-06-25T18:46:30.276Z,45.35
2018-06-25T18:48:59.161Z,45.66
2018-06-25T18:51:27.928Z,46.13
2018-06-25T18:53:56.851Z,46.03
2018-06-25T18:56:25.602Z,45.93
2018-06-25T18:58:54.514Z,46.52
2018-06-25T19:01:23.302Z,48.03
2018-06-25T19:03:52.153Z,48.73
2018-06-25T19:06:20.849Z,50.05
2018-06-25T19:08:49.573Z,50.74
2018-06-25T19:11:18.387Z,51.84
2018-06-25T19:13:47.132Z,52.00
2018-06-25T19:16:15.883Z,52.26
2018-06-25T19:18:44.983Z,54.42
2018-06-25T19:21:13.957Z,55.50
2018-06-25T19:23:43.382Z,56.01
2018-06-25T19:26:12.048Z,57.12
2018-06-25T19:28:40.871Z,58.59
2018-06-25T19:31:10.024Z,58.57
2018-06-25T19:33:39.019Z,59.04
2018-06-25T19:36:07.771Z,59.01
2018-06-25T19:38:36.635Z,59.90
2018-06-25T19:41:05.422Z,60.40
2018-06-25T19:43:34.162Z,61.03
2018-06-25T19:46:03.256Z,61.49
2018-06-25T19:48:31.902Z,61.68
2018-06-25T19:51:00.753Z,62.79
2018-06-25T19:53:29.756Z,63.20
2018-06-25T19:55:58.428Z,63.73
2018-06-25T19:58:27.336Z,64.28
2018-06-25T20:00:56.188Z,64.74
2018-06-25T20:03:24.934Z,65.89
2018-06-25T20:05:53.794Z,65.42
2018-06-25T20:08:22.423Z,66.79
2018-06-25T20:10:51.403Z,66.33
2018-06-25T20:13:20.181Z,67.14
2018-06-25T20:15:49.204Z,67.66
2018-06-25T20:18:17.867Z,68.47
2018-06-25T20:20:46.828Z,69.28
2018-06-25T20:23:15.962Z,69.66
2018-06-25T20:25:44.679Z,69.44
2018-06-25T20:28:13.405Z,70.28
2018-06-25T20:30:42.423Z,70.70
2018-06-25T20:33:11.165Z,71.14
2018-06-25T20:35:39.752Z,71.97
2018-06-25T20:38:10.293Z,72.23
2018-06-25T20:40:39.270Z,72.13
2018-06-25T20:43:08.693Z,72.87
2018-06-25T20:45:37.971Z,73.06
2018-06-25T20:48:07.065Z,73.32
2018-06-25T20:50:35.748Z,73.77
2018-06-25T20:53:04.543Z,74.58
2018-06-25T20:55:33.146Z,74.83
2018-06-25T20:58:01.802Z,75.38
2018-06-25T21:00:30.918Z,75.81
2018-06-25T21:02:59.960Z,75.89
2018-06-25T21:05:28.728Z,76.17
2018-06-25T21:07:57.708Z,76.33
2018-06-25T21:10:26.649Z,76.94
2018-06-25T21:12:55.353Z,77.27
2018-06-25T21:15:24.677Z,77.11
2018-06-25T21:17:53.457Z,77.23
2018-06-25T21:20:22.292Z,77.24
2018-06-25T21:22:51.356Z,77.30
2018-06-25T21:25:20.514Z,78.08
2018-06-25T21:27:49.897Z,78.24
2018-06-25T21:30:19.117Z,78.35
2018-06-25T21:32:48.237Z,78.84
2018-06-25T21:35:17.322Z,78.83
2018-06-25T21:37:46.712Z,79.15
2018-06-25T21:40:16.031Z,79.23
2018-06-25T21:42:45.103Z,79.11
2018-06-25T21:45:14.011Z,79.55
2018-06-25T21:47:42.774Z,79.74
2018-06-25T21:50:11.734Z,80.03
2018-06-25T21:52:41.108Z,80.77
2018-06-25T21:55:09.943Z,81.16
2018-06-25T21:57:38.709Z,80.94
2018-06-25T22:00:11.139Z,80.89
2018-06-25T22:02:39.998Z,81.52
2018-06-25T22:05:09.100Z,81.28
2018-06-25T22:07:38.366Z,81.69
2018-06-25T22:10:08.535Z,82.29
2018-06-25T22:12:37.857Z,82.03
2018-06-25T22:15:07.595Z,82.33
2018-06-25T22:17:38.499Z,82.75
2018-06-25T22:20:07.352Z,82.74
2018-06-25T22:22:36.531Z,82.67
2018-06-25T22:25:05.787Z,82.70
2018-06-25T22:27:35.067Z,83.12
2018-06-25T22:30:04.497Z,83.00
2018-06-25T22:32:33.473Z,83.37
2018-06-25T22:35:03.707Z,83.72
2018-06-25T22:37:34.117Z,84.13
2018-06-25T22:40:03.062Z,84.39
2018-06-25T22:42:33.548Z,84.60
2018-06-25T22:45:02.977Z,84.61
2018-06-25T22:47:31.658Z,84.82
2018-06-25T22:50:00.820Z,84.90
2018-06-25T22:52:30.203Z,85.05
2018-06-25T22:54:59.274Z,85.40
2018-06-25T22:57:28.124Z,85.58
2018-06-25T22:59:56.817Z,85.51
2018-06-25T23:02:25.414Z,85.82
2018-06-25T23:04:54.173Z,85.89
2018-06-25T23:07:22.844Z,85.67
2018-06-25T23:13:21.829Z,86.50
2018-06-25T23:15:50.798Z,86.56
2018-06-25T23:18:19.529Z,86.59
2018-06-25T23:20:49.058Z,86.65
2018-06-25T23:23:18.409Z,86.47
2018-06-25T23:25:47.263Z,86.48
2018-06-25T23:28:15.925Z,86.62
2018-06-25T23:30:44.728Z,86.82
2018-06-25T23:33:13.456Z,87.21
2018-06-25T23:35:42.149Z,87.13
2018-06-25T23:38:11.698Z,87.33
2018-06-25T23:40:41.018Z,87.46
2018-06-25T23:43:10.307Z,87.56
2018-06-25T23:45:38.999Z,88.33
2018-06-25T23:48:07.619Z,88.50
2018-06-25T23:50:36.214Z,88.30
2018-06-25T23:53:05.165Z,88.04
2018-06-25T23:55:34.412Z,87.83
2018-06-25T23:58:03.284Z,87.99
